LSMM Airport Information

Runway Information
Runway 10 Length 6571 ft width 130 ft
Elevation 1885 ft Threshold 0 ft Heading 95
Runway 28 Length 6571 ft Width 130 ft
Elevation 1895 ft Threshold 0 ft Heading 275
Airport Frequencies
Type ARR Name ARR/DEP Frequency 37.012 MHZ
Type ARR Name ARR/DEP Frequency 138.275 MHZ
Type INFO Name INFO Frequency 138.05 MHZ
Type TWR Name TWR Frequency 130.15 MHZ
Airport Navaids
Airport Weather Information & NOTAM
ADDS - METARS form results

(0623 UTC 15 December 2018)
Data provider http://aviationweather.gov/metar/data/
 
METAR text: LSMM 150620Z AUTO 06012KT 020V080 7000NDV NCD M02/M04 Q1020 RMK
Conditions at: LSMM (MEIRINGEN , CH) observed 0620 UTC 15 December 2018
Temperature: -2.0°C (28°F)
Dewpoint: -4.0°C (25°F) [RH = 86%]
Pressure (altimeter): 30.12 inches Hg (1020.0 mb)
Winds: from the ENE (60 degrees) at 14 MPH (12 knots; 6.2 m/s)
Visibility: missing
Ceiling: at least 12,000 feet AGL
Clouds: sky clear below 12,000 feet AGL
Weather: no significant weather observed at this time

METAR text: LSMM 150550Z AUTO 04013KT 360V070 7000NDV FEW044 M02/M04 Q1020 RMK
Conditions at: LSMM (MEIRINGEN , CH) observed 0550 UTC 15 December 2018
Temperature: -2.0°C (28°F)
Dewpoint: -4.0°C (25°F) [RH = 86%]
Pressure (altimeter): 30.12 inches Hg (1020.0 mb)
Winds: from the NE (40 degrees) at 15 MPH (13 knots; 6.7 m/s)
Visibility: missing
Ceiling: at least 12,000 feet AGL
Clouds: few clouds at 4400 feet AGL
Weather: no significant weather observed at this time